TAF KBUF
AMD KBUF 080258Z 0803/0824 26008KT P6SM OVC025 TEMPO 0803/0805 3SM -SHSN FM080500 VRB03KT P6SM BKN040 FM080900 19004KT 6SM -SHSN OVC035 FM081200 21008KT P6SM OVC040 FM081800 23012KT 2SM -SN OVC025 FM082300 27010KT P6SM BKN035=
METAR KBUF
SPECI KBUF 080317Z 32005KT 10SM -SN OVC028 M03/M09 A3014 RMK AO2 P0000 T10281094
KBUF 080254Z 34004KT 10SM -SN OVC032 M02/M09 A3014 RMK AO2 SNB51 SLP217 P0000 60000 T10221094 58003 ?
SPECI KBUF 080251Z 29003KT 10SM -SN OVC033 M02/M09 A3014 RMK AO2 SNB51 P0000 ?
KBUF 080154Z 25005KT 10SM OVC030 M02/M09 A3016 RMK AO2 SLP222 T10221094 ?
KBUF 080054Z 28005KT 10SM BKN031 M02/M09 A3016 RMK AO2 SNE08 SLP223 P0000 T10221094 ?
WC KBUF
WS KBUF
WV KBUF